Crittenden, KY (41030)

2:25 PM EST on December 26, 2014 (GMT -0500)
RAWS CRITTENDEN KY US | Change Station
CLOSE
Current Station
Personal Weather Station
Location: Crittenden, KY
Elevation: 935 ft
Nearby Weather Stations

Elev 935 ft 38.77 °N, 84.60 °W | Updated 28 minutes ago

Clear
Clear
53 °F
Feels Like 53 °F
N
7
Wind Variable Wind from SSW
Gusts 18.0 mph

Today
High -- | Low -- °F
--% Chance of Precip.
Yesterday
High -- | Low -- °F
Precip. -- in
7:55 AM 5:22 PM
Waxing Crescent, 28% visible
Pressure 30.19 in
Visibility 10.0 miles
Clouds Few 13000 ft
Scattered Clouds 15000 ft
Scattered Clouds 25000 ft
Dew Point 37 °F
Humidity 55%
Rainfall 0.00 in
Snow Depth Not available.
UV 2 out of 12
Pollen .10 out of 12
Air Quality Not available.
Flu Activity Not available.
METAR KCVG 261852Z 21010G18KT 10SM FEW130 SCT150 SCT250 11/02 A3018 RMK AO2 SLP223 T01060017

More Conditions Fewer Conditions

Pressure 30.19 in
Visibility 10.0 miles
Clouds Few 13000 ft
Scattered Clouds 15000 ft
Scattered Clouds 25000 ft
Dew Point 37 °F
Humidity 55%
Rainfall 0.00 in
Snow Depth Not available.
UV 2 out of 12
Pollen .10 out of 12
Air Quality Not available.
Flu Activity Not available.
METAR KCVG 261852Z 21010G18KT 10SM FEW130 SCT150 SCT250 11/02 A3018 RMK AO2 SLP223 T01060017

More Conditions Fewer Conditions

10-Day Weather Forecast

Almanac

Astronomy

Dec. 26, 2014 Rise Set
Actual Time
Civil Twilight
Nautical Twilight
Astronomical Twilight
Moon
Length of Visible Light
Length of Day
Tomorrow will be .
, % of the Moon is Illuminated

Today's Extremes

State Highs State Lows

Community

WunderPhotos

Upload Photos

1,780,675 photos uploaded!

WunderBlogs® & News

Nearby

Air Quality

  Air Quality AQ Index Pollutant
Not available.

Snow Depth

Station Depth Elevation

Earthquake Activity

City Distance Mag. Time & Date
Minimum magnitude displayed is 2.5.

Coastal Water Temperatures

Place Temperature

Nearby Weather Stations